This is the latest recevied weather packets stored in our database for station/object OK1FET-16. If no packets are shown the sender has not sent any weather packets the latest 10 day(s).
| Time | Temp. | Humidity | Pressure | Rain* | Wind** | Luminosity | Snow |
|---|---|---|---|---|---|---|---|
| 1787733077 | 31.67° C | 52% | 1073.2 hPa | - | - | - | - |
| 1787732805 | 31.11° C | 53% | 1073.2 hPa | - | - | - | - |
| 1787732533 | 31.67° C | 53% | 1073.2 hPa | - | - | - | - |
| 1787731991 | 28.89° C | 56% | 1073.1 hPa | - | - | - | - |
| 1787731719 | 26.67° C | 57% | 1073.1 hPa | - | - | - | - |
| 1787731448 | 24.44° C | 59% | 1073 hPa | - | - | - | - |
| 1787730093 | 24.44° C | 58% | 1072.9 hPa | - | - | - | - |
| 1787729822 | 24.44° C | 58% | 1072.9 hPa | - | - | - | - |
| 1787729551 | 25° C | 58% | 1072.9 hPa | - | - | - | - |
| 1787729009 | 25° C | 58% | 1072.9 hPa | - | - | - | - |
| 1787728737 | 26.11° C | 57% | 1072.8 hPa | - | - | - | - |
| 1787728466 | 27.22° C | 57% | 1072.9 hPa | - | - | - | - |
| 1787728194 | 27.78° C | 57% | 1072.8 hPa | - | - | - | - |
| 1787727651 | 28.89° C | 56% | 1072.7 hPa | - | - | - | - |
| 1787727379 | 28.33° C | 57% | 1072.8 hPa | - | - | - | - |
| 1787727108 | 28.89° C | 57% | 1072.8 hPa | - | - | - | - |
| 1787726836 | 28.33° C | 58% | 1072.8 hPa | - | - | - | - |
| 1787726565 | 27.78° C | 59% | 1072.7 hPa | - | - | - | - |
| 1787726293 | 27.22° C | 59% | 1072.7 hPa | - | - | - | - |
| 1787726022 | 26.11° C | 61% | 1072.6 hPa | - | - | - | - |
| 1787725751 | 26.11° C | 63% | 1072.6 hPa | - | - | - | - |
| 1787725209 | 23.89° C | 68% | 1072.6 hPa | - | - | - | - |
| 1787724938 | 22.22° C | 71% | 1072.6 hPa | - | - | - | - |
| 1787724667 | 21.67° C | 73% | 1072.5 hPa | - | - | - | - |
| 1787724127 | 19.44° C | 82% | 1072.3 hPa | - | - | - | - |
* Rain since midnight (hover to see other rain measurements)
** Current wind speed in m/s (hover to see current wind gust speed)